sensor_id;sensor_type;location;lat;lon;timestamp;temperature;humidity
3940;DHT22;1984;48.312;9.244;2024-02-28T00:02:09;6.10;99.90
3940;DHT22;1984;48.312;9.244;2024-02-28T00:04:34;6.10;99.90
3940;DHT22;1984;48.312;9.244;2024-02-28T00:07:00;6.10;99.90
3940;DHT22;1984;48.312;9.244;2024-02-28T00:09:25;6.10;99.90
3940;DHT22;1984;48.312;9.244;2024-02-28T00:11:51;6.10;99.90
3940;DHT22;1984;48.312;9.244;2024-02-28T00:14:16;6.00;99.90
3940;DHT22;1984;48.312;9.244;2024-02-28T00:16:46;6.00;99.90
3940;DHT22;1984;48.312;9.244;2024-02-28T00:19:12;6.00;99.90
3940;DHT22;1984;48.312;9.244;2024-02-28T00:21:38;5.90;99.90
3940;DHT22;1984;48.312;9.244;2024-02-28T00:24:05;5.90;99.90
3940;DHT22;1984;48.312;9.244;2024-02-28T00:26:30;6.00;99.90
3940;DHT22;1984;48.312;9.244;2024-02-28T00:28:56;5.90;99.90
3940;DHT22;1984;48.312;9.244;2024-02-28T00:31:22;6.00;99.90
3940;DHT22;1984;48.312;9.244;2024-02-28T00:33:47;6.00;99.90
3940;DHT22;1984;48.312;9.244;2024-02-28T00:36:13;6.00;99.90
3940;DHT22;1984;48.312;9.244;2024-02-28T00:38:40;6.00;99.90
3940;DHT22;1984;48.312;9.244;2024-02-28T00:41:06;6.00;99.90
3940;DHT22;1984;48.312;9.244;2024-02-28T00:43:31;6.00;99.90
3940;DHT22;1984;48.312;9.244;2024-02-28T00:45:57;6.00;99.90
3940;DHT22;1984;48.312;9.244;2024-02-28T00:48:24;6.00;99.90
3940;DHT22;1984;48.312;9.244;2024-02-28T00:50:50;6.00;99.90
3940;DHT22;1984;48.312;9.244;2024-02-28T00:53:15;6.00;99.90
3940;DHT22;1984;48.312;9.244;2024-02-28T00:55:41;6.00;99.90
3940;DHT22;1984;48.312;9.244;2024-02-28T00:58:07;6.00;99.90
3940;DHT22;1984;48.312;9.244;2024-02-28T01:00:32;6.00;99.90
3940;DHT22;1984;48.312;9.244;2024-02-28T01:02:58;6.00;99.90
3940;DHT22;1984;48.312;9.244;2024-02-28T01:05:23;6.00;99.90
3940;DHT22;1984;48.312;9.244;2024-02-28T01:07:49;6.10;99.90
3940;DHT22;1984;48.312;9.244;2024-02-28T01:10:15;6.00;99.90
3940;DHT22;1984;48.312;9.244;2024-02-28T01:12:40;6.00;99.90
3940;DHT22;1984;48.312;9.244;2024-02-28T01:15:06;6.00;99.90
3940;DHT22;1984;48.312;9.244;2024-02-28T01:17:32;6.00;99.90
3940;DHT22;1984;48.312;9.244;2024-02-28T01:19:58;5.90;99.90
3940;DHT22;1984;48.312;9.244;2024-02-28T01:22:24;5.90;99.90
3940;DHT22;1984;48.312;9.244;2024-02-28T01:24:49;5.80;99.90
3940;DHT22;1984;48.312;9.244;2024-02-28T01:27:15;5.70;99.90
3940;DHT22;1984;48.312;9.244;2024-02-28T01:29:40;5.60;99.90
3940;DHT22;1984;48.312;9.244;2024-02-28T01:32:06;5.60;99.90
3940;DHT22;1984;48.312;9.244;2024-02-28T01:34:32;5.60;99.90
3940;DHT22;1984;48.312;9.244;2024-02-28T01:36:57;5.50;99.90
3940;DHT22;1984;48.312;9.244;2024-02-28T01:39:23;5.50;99.90
3940;DHT22;1984;48.312;9.244;2024-02-28T01:41:55;5.50;99.90
3940;DHT22;1984;48.312;9.244;2024-02-28T01:44:22;5.50;99.90
3940;DHT22;1984;48.312;9.244;2024-02-28T01:46:48;5.40;99.90
3940;DHT22;1984;48.312;9.244;2024-02-28T01:49:15;5.40;99.90
3940;DHT22;1984;48.312;9.244;2024-02-28T01:51:41;5.40;99.90
3940;DHT22;1984;48.312;9.244;2024-02-28T01:54:08;5.30;99.90
3940;DHT22;1984;48.312;9.244;2024-02-28T01:56:34;5.30;99.90
3940;DHT22;1984;48.312;9.244;2024-02-28T01:59:00;5.30;99.90
3940;DHT22;1984;48.312;9.244;2024-02-28T02:01:27;5.30;99.90
3940;DHT22;1984;48.312;9.244;2024-02-28T02:03:53;5.40;99.90
3940;DHT22;1984;48.312;9.244;2024-02-28T02:06:19;5.40;99.90
3940;DHT22;1984;48.312;9.244;2024-02-28T02:08:45;5.40;99.90
3940;DHT22;1984;48.312;9.244;2024-02-28T02:11:12;5.40;99.90
3940;DHT22;1984;48.312;9.244;2024-02-28T02:13:52;5.40;99.90
3940;DHT22;1984;48.312;9.244;2024-02-28T02:16:21;5.40;99.90
3940;DHT22;1984;48.312;9.244;2024-02-28T02:18:53;5.40;99.90
3940;DHT22;1984;48.312;9.244;2024-02-28T02:21:23;5.30;99.90
3940;DHT22;1984;48.312;9.244;2024-02-28T02:23:49;5.30;99.90
3940;DHT22;1984;48.312;9.244;2024-02-28T02:26:15;5.20;99.90
3940;DHT22;1984;48.312;9.244;2024-02-28T02:28:40;5.30;99.90
3940;DHT22;1984;48.312;9.244;2024-02-28T02:31:06;5.30;99.90
3940;DHT22;1984;48.312;9.244;2024-02-28T02:33:31;5.30;99.90
3940;DHT22;1984;48.312;9.244;2024-02-28T02:35:58;5.40;99.90
3940;DHT22;1984;48.312;9.244;2024-02-28T02:38:23;5.40;99.90
3940;DHT22;1984;48.312;9.244;2024-02-28T02:40:53;5.40;99.90
3940;DHT22;1984;48.312;9.244;2024-02-28T02:43:18;5.40;99.90
3940;DHT22;1984;48.312;9.244;2024-02-28T02:45:44;5.40;99.90
3940;DHT22;1984;48.312;9.244;2024-02-28T02:48:10;5.40;99.90
3940;DHT22;1984;48.312;9.244;2024-02-28T02:50:35;5.40;99.90
3940;DHT22;1984;48.312;9.244;2024-02-28T02:53:02;5.40;99.90
3940;DHT22;1984;48.312;9.244;2024-02-28T02:55:28;5.50;99.90
3940;DHT22;1984;48.312;9.244;2024-02-28T02:57:54;5.40;99.90
3940;DHT22;1984;48.312;9.244;2024-02-28T03:00:20;5.40;99.90
3940;DHT22;1984;48.312;9.244;2024-02-28T03:02:45;5.30;99.90
3940;DHT22;1984;48.312;9.244;2024-02-28T03:05:11;5.40;99.90
3940;DHT22;1984;48.312;9.244;2024-02-28T03:07:37;5.40;99.90
3940;DHT22;1984;48.312;9.244;2024-02-28T03:10:02;5.40;99.90
3940;DHT22;1984;48.312;9.244;2024-02-28T03:12:28;5.40;99.90
3940;DHT22;1984;48.312;9.244;2024-02-28T03:14:54;5.40;99.90
3940;DHT22;1984;48.312;9.244;2024-02-28T03:17:19;5.30;99.90
3940;DHT22;1984;48.312;9.244;2024-02-28T03:19:45;5.20;99.90
3940;DHT22;1984;48.312;9.244;2024-02-28T03:22:10;5.20;99.90
3940;DHT22;1984;48.312;9.244;2024-02-28T03:24:36;5.10;99.90
3940;DHT22;1984;48.312;9.244;2024-02-28T03:27:02;5.10;99.90
3940;DHT22;1984;48.312;9.244;2024-02-28T03:29:28;5.10;99.90
3940;DHT22;1984;48.312;9.244;2024-02-28T03:31:54;5.20;99.90
3940;DHT22;1984;48.312;9.244;2024-02-28T03:34:19;5.20;99.90
3940;DHT22;1984;48.312;9.244;2024-02-28T03:36:45;5.30;99.90
3940;DHT22;1984;48.312;9.244;2024-02-28T03:39:11;5.30;99.90
3940;DHT22;1984;48.312;9.244;2024-02-28T03:41:37;5.40;99.90
3940;DHT22;1984;48.312;9.244;2024-02-28T03:44:02;5.40;99.90
3940;DHT22;1984;48.312;9.244;2024-02-28T03:46:28;5.40;99.90
3940;DHT22;1984;48.312;9.244;2024-02-28T03:48:53;5.40;99.90
3940;DHT22;1984;48.312;9.244;2024-02-28T03:51:19;5.40;99.90
3940;DHT22;1984;48.312;9.244;2024-02-28T03:53:44;5.40;99.90
3940;DHT22;1984;48.312;9.244;2024-02-28T03:56:10;5.40;99.90
3940;DHT22;1984;48.312;9.244;2024-02-28T03:58:36;5.30;99.90
3940;DHT22;1984;48.312;9.244;2024-02-28T04:01:02;5.30;99.90
3940;DHT22;1984;48.312;9.244;2024-02-28T04:03:28;5.30;99.90
3940;DHT22;1984;48.312;9.244;2024-02-28T04:05:53;5.30;99.90
3940;DHT22;1984;48.312;9.244;2024-02-28T04:08:19;5.30;99.90
3940;DHT22;1984;48.312;9.244;2024-02-28T04:10:44;5.20;99.90
3940;DHT22;1984;48.312;9.244;2024-02-28T04:13:10;5.20;99.90
3940;DHT22;1984;48.312;9.244;2024-02-28T04:15:35;5.20;99.90
3940;DHT22;1984;48.312;9.244;2024-02-28T04:18:01;5.10;99.90
3940;DHT22;1984;48.312;9.244;2024-02-28T04:20:26;5.10;99.90
3940;DHT22;1984;48.312;9.244;2024-02-28T04:22:52;5.10;99.90
3940;DHT22;1984;48.312;9.244;2024-02-28T04:25:17;5.10;99.90
3940;DHT22;1984;48.312;9.244;2024-02-28T04:27:43;5.20;99.90
3940;DHT22;1984;48.312;9.244;2024-02-28T04:30:09;5.20;99.90
3940;DHT22;1984;48.312;9.244;2024-02-28T04:32:35;5.20;99.90
3940;DHT22;1984;48.312;9.244;2024-02-28T04:35:01;5.20;99.90
3940;DHT22;1984;48.312;9.244;2024-02-28T04:37:28;5.10;99.90
3940;DHT22;1984;48.312;9.244;2024-02-28T04:39:53;5.10;99.90
3940;DHT22;1984;48.312;9.244;2024-02-28T04:42:19;5.10;99.90
3940;DHT22;1984;48.312;9.244;2024-02-28T04:44:44;5.20;99.90
3940;DHT22;1984;48.312;9.244;2024-02-28T04:47:10;5.20;99.90
3940;DHT22;1984;48.312;9.244;2024-02-28T04:49:39;5.20;99.90
3940;DHT22;1984;48.312;9.244;2024-02-28T04:52:05;5.20;99.90
3940;DHT22;1984;48.312;9.244;2024-02-28T04:54:31;5.20;99.90
3940;DHT22;1984;48.312;9.244;2024-02-28T04:56:56;5.20;99.90
3940;DHT22;1984;48.312;9.244;2024-02-28T04:59:22;5.20;99.90
3940;DHT22;1984;48.312;9.244;2024-02-28T05:01:48;5.20;99.90
3940;DHT22;1984;48.312;9.244;2024-02-28T05:04:13;5.20;99.90
3940;DHT22;1984;48.312;9.244;2024-02-28T05:06:39;5.20;99.90
3940;DHT22;1984;48.312;9.244;2024-02-28T05:09:05;5.20;99.90
3940;DHT22;1984;48.312;9.244;2024-02-28T05:11:31;5.30;99.90
3940;DHT22;1984;48.312;9.244;2024-02-28T05:13:56;5.30;99.90
3940;DHT22;1984;48.312;9.244;2024-02-28T05:16:22;5.30;99.90
3940;DHT22;1984;48.312;9.244;2024-02-28T05:18:47;5.20;99.90
3940;DHT22;1984;48.312;9.244;2024-02-28T05:21:13;5.30;99.90
3940;DHT22;1984;48.312;9.244;2024-02-28T05:23:42;5.30;99.90
3940;DHT22;1984;48.312;9.244;2024-02-28T05:26:07;5.30;99.90
3940;DHT22;1984;48.312;9.244;2024-02-28T05:28:33;5.30;99.90
3940;DHT22;1984;48.312;9.244;2024-02-28T05:31:10;5.30;99.90
3940;DHT22;1984;48.312;9.244;2024-02-28T05:33:44;5.30;99.90
3940;DHT22;1984;48.312;9.244;2024-02-28T05:36:10;5.30;99.90
3940;DHT22;1984;48.312;9.244;2024-02-28T05:38:35;5.30;99.90
3940;DHT22;1984;48.312;9.244;2024-02-28T05:41:01;5.30;99.90
3940;DHT22;1984;48.312;9.244;2024-02-28T05:43:26;5.20;99.90
3940;DHT22;1984;48.312;9.244;2024-02-28T05:45:52;5.20;99.90
3940;DHT22;1984;48.312;9.244;2024-02-28T05:48:18;5.20;99.90
3940;DHT22;1984;48.312;9.244;2024-02-28T05:50:44;5.20;99.90
3940;DHT22;1984;48.312;9.244;2024-02-28T05:53:09;5.20;99.90
3940;DHT22;1984;48.312;9.244;2024-02-28T05:55:35;5.20;99.90
3940;DHT22;1984;48.312;9.244;2024-02-28T05:58:00;5.20;99.90
3940;DHT22;1984;48.312;9.244;2024-02-28T06:00:27;5.30;99.90
3940;DHT22;1984;48.312;9.244;2024-02-28T06:02:53;5.20;99.90
3940;DHT22;1984;48.312;9.244;2024-02-28T06:05:19;5.20;99.90
3940;DHT22;1984;48.312;9.244;2024-02-28T06:07:45;5.20;99.90
3940;DHT22;1984;48.312;9.244;2024-02-28T06:10:10;5.10;99.90
3940;DHT22;1984;48.312;9.244;2024-02-28T06:12:36;5.20;99.90
3940;DHT22;1984;48.312;9.244;2024-02-28T06:15:01;5.10;99.90
3940;DHT22;1984;48.312;9.244;2024-02-28T06:17:27;5.10;99.90
3940;DHT22;1984;48.312;9.244;2024-02-28T06:19:53;5.10;99.90
3940;DHT22;1984;48.312;9.244;2024-02-28T06:24:48;5.20;99.90
3940;DHT22;1984;48.312;9.244;2024-02-28T06:27:13;5.20;99.90
3940;DHT22;1984;48.312;9.244;2024-02-28T06:29:39;5.20;99.90
3940;DHT22;1984;48.312;9.244;2024-02-28T06:32:05;5.20;99.90
3940;DHT22;1984;48.312;9.244;2024-02-28T06:34:31;5.20;99.90
3940;DHT22;1984;48.312;9.244;2024-02-28T06:36:57;5.30;99.90
3940;DHT22;1984;48.312;9.244;2024-02-28T06:39:22;5.30;99.90
3940;DHT22;1984;48.312;9.244;2024-02-28T06:41:48;5.30;99.90
3940;DHT22;1984;48.312;9.244;2024-02-28T06:44:18;5.30;99.90
3940;DHT22;1984;48.312;9.244;2024-02-28T06:46:43;5.40;99.90
3940;DHT22;1984;48.312;9.244;2024-02-28T06:49:09;5.30;99.90
3940;DHT22;1984;48.312;9.244;2024-02-28T06:51:34;5.30;99.90
3940;DHT22;1984;48.312;9.244;2024-02-28T06:54:00;5.30;99.90
3940;DHT22;1984;48.312;9.244;2024-02-28T06:56:25;5.30;99.90
3940;DHT22;1984;48.312;9.244;2024-02-28T06:58:51;5.40;99.90
3940;DHT22;1984;48.312;9.244;2024-02-28T07:01:17;5.40;99.90
3940;DHT22;1984;48.312;9.244;2024-02-28T07:03:43;5.50;99.90
3940;DHT22;1984;48.312;9.244;2024-02-28T07:06:09;5.50;99.90
3940;DHT22;1984;48.312;9.244;2024-02-28T07:08:35;5.40;99.90
3940;DHT22;1984;48.312;9.244;2024-02-28T07:11:00;5.40;99.90
3940;DHT22;1984;48.312;9.244;2024-02-28T07:13:26;5.40;99.90
3940;DHT22;1984;48.312;9.244;2024-02-28T07:15:52;5.40;99.90
3940;DHT22;1984;48.312;9.244;2024-02-28T07:18:19;5.40;99.90
3940;DHT22;1984;48.312;9.244;2024-02-28T07:20:45;5.40;99.90
3940;DHT22;1984;48.312;9.244;2024-02-28T07:23:12;5.40;99.90
3940;DHT22;1984;48.312;9.244;2024-02-28T07:25:37;5.40;99.90
3940;DHT22;1984;48.312;9.244;2024-02-28T07:28:03;5.40;99.90
3940;DHT22;1984;48.312;9.244;2024-02-28T07:30:29;5.40;99.90
3940;DHT22;1984;48.312;9.244;2024-02-28T07:32:54;5.50;99.90
3940;DHT22;1984;48.312;9.244;2024-02-28T07:35:20;5.50;99.90
3940;DHT22;1984;48.312;9.244;2024-02-28T07:37:47;5.50;99.90
3940;DHT22;1984;48.312;9.244;2024-02-28T07:40:12;5.50;99.90
3940;DHT22;1984;48.312;9.244;2024-02-28T07:42:38;5.60;99.90
3940;DHT22;1984;48.312;9.244;2024-02-28T07:45:04;5.60;99.90
3940;DHT22;1984;48.312;9.244;2024-02-28T07:47:30;5.60;99.90
3940;DHT22;1984;48.312;9.244;2024-02-28T07:49:56;5.70;99.90
3940;DHT22;1984;48.312;9.244;2024-02-28T07:52:21;5.70;99.90
3940;DHT22;1984;48.312;9.244;2024-02-28T07:54:47;5.80;99.90
3940;DHT22;1984;48.312;9.244;2024-02-28T07:57:14;5.90;99.90
3940;DHT22;1984;48.312;9.244;2024-02-28T07:59:41;5.90;99.90
3940;DHT22;1984;48.312;9.244;2024-02-28T08:02:07;6.00;99.90
3940;DHT22;1984;48.312;9.244;2024-02-28T08:04:33;6.00;99.90
3940;DHT22;1984;48.312;9.244;2024-02-28T08:06:59;6.00;99.90
3940;DHT22;1984;48.312;9.244;2024-02-28T08:09:25;6.00;99.90
3940;DHT22;1984;48.312;9.244;2024-02-28T08:11:51;6.10;99.90
3940;DHT22;1984;48.312;9.244;2024-02-28T08:14:16;6.20;99.90
3940;DHT22;1984;48.312;9.244;2024-02-28T08:16:43;6.30;99.90
3940;DHT22;1984;48.312;9.244;2024-02-28T08:19:09;6.50;99.90
3940;DHT22;1984;48.312;9.244;2024-02-28T08:21:35;6.60;99.90
3940;DHT22;1984;48.312;9.244;2024-02-28T08:24:00;6.60;99.90
3940;DHT22;1984;48.312;9.244;2024-02-28T08:26:30;6.70;99.90
3940;DHT22;1984;48.312;9.244;2024-02-28T08:28:55;6.80;99.90
3940;DHT22;1984;48.312;9.244;2024-02-28T08:31:21;7.00;99.90
3940;DHT22;1984;48.312;9.244;2024-02-28T08:33:46;7.10;99.90
3940;DHT22;1984;48.312;9.244;2024-02-28T08:36:12;7.00;99.90
3940;DHT22;1984;48.312;9.244;2024-02-28T08:38:37;7.10;99.90
3940;DHT22;1984;48.312;9.244;2024-02-28T08:41:04;7.10;99.90
3940;DHT22;1984;48.312;9.244;2024-02-28T08:43:30;7.10;99.90
3940;DHT22;1984;48.312;9.244;2024-02-28T08:45:56;7.10;99.90
3940;DHT22;1984;48.312;9.244;2024-02-28T08:48:21;7.00;99.90
3940;DHT22;1984;48.312;9.244;2024-02-28T08:50:48;6.90;99.90
3940;DHT22;1984;48.312;9.244;2024-02-28T08:53:14;6.80;99.90
3940;DHT22;1984;48.312;9.244;2024-02-28T08:55:39;6.70;99.90
3940;DHT22;1984;48.312;9.244;2024-02-28T08:58:05;6.60;99.90
3940;DHT22;1984;48.312;9.244;2024-02-28T09:00:30;6.50;99.90
3940;DHT22;1984;48.312;9.244;2024-02-28T09:02:56;6.50;99.90
3940;DHT22;1984;48.312;9.244;2024-02-28T09:05:23;6.50;99.90
3940;DHT22;1984;48.312;9.244;2024-02-28T09:07:48;6.50;99.90
3940;DHT22;1984;48.312;9.244;2024-02-28T09:10:17;6.40;99.90
3940;DHT22;1984;48.312;9.244;2024-02-28T09:12:52;6.40;99.90
3940;DHT22;1984;48.312;9.244;2024-02-28T09:15:18;6.40;99.90
3940;DHT22;1984;48.312;9.244;2024-02-28T09:17:44;6.40;99.90
3940;DHT22;1984;48.312;9.244;2024-02-28T09:20:10;6.30;99.90
3940;DHT22;1984;48.312;9.244;2024-02-28T09:22:37;6.30;99.90
3940;DHT22;1984;48.312;9.244;2024-02-28T09:25:03;6.40;99.90
3940;DHT22;1984;48.312;9.244;2024-02-28T09:27:30;6.50;99.90
3940;DHT22;1984;48.312;9.244;2024-02-28T09:29:55;6.50;99.90
3940;DHT22;1984;48.312;9.244;2024-02-28T09:32:21;6.60;99.90
3940;DHT22;1984;48.312;9.244;2024-02-28T09:34:46;6.70;99.90
3940;DHT22;1984;48.312;9.244;2024-02-28T09:37:13;6.80;99.90
3940;DHT22;1984;48.312;9.244;2024-02-28T09:39:38;7.00;99.90
3940;DHT22;1984;48.312;9.244;2024-02-28T09:42:06;7.10;99.90
3940;DHT22;1984;48.312;9.244;2024-02-28T09:44:32;7.20;99.90
3940;DHT22;1984;48.312;9.244;2024-02-28T09:46:58;7.30;99.90
3940;DHT22;1984;48.312;9.244;2024-02-28T09:49:24;7.30;99.90
3940;DHT22;1984;48.312;9.244;2024-02-28T09:51:52;7.30;99.90
3940;DHT22;1984;48.312;9.244;2024-02-28T09:54:18;7.30;99.90
3940;DHT22;1984;48.312;9.244;2024-02-28T09:56:44;7.20;99.90
3940;DHT22;1984;48.312;9.244;2024-02-28T09:59:11;7.20;99.90
3940;DHT22;1984;48.312;9.244;2024-02-28T10:01:42;7.20;99.90
3940;DHT22;1984;48.312;9.244;2024-02-28T10:04:10;7.20;99.90
3940;DHT22;1984;48.312;9.244;2024-02-28T10:06:39;7.20;99.90
3940;DHT22;1984;48.312;9.244;2024-02-28T10:09:05;7.40;99.90
3940;DHT22;1984;48.312;9.244;2024-02-28T10:11:30;7.50;99.90
3940;DHT22;1984;48.312;9.244;2024-02-28T10:13:56;7.60;99.90
3940;DHT22;1984;48.312;9.244;2024-02-28T10:16:22;7.60;99.90
3940;DHT22;1984;48.312;9.244;2024-02-28T10:18:48;7.60;99.90
3940;DHT22;1984;48.312;9.244;2024-02-28T10:21:14;7.70;99.90
3940;DHT22;1984;48.312;9.244;2024-02-28T10:23:44;7.60;99.90
3940;DHT22;1984;48.312;9.244;2024-02-28T10:26:11;7.60;99.90
3940;DHT22;1984;48.312;9.244;2024-02-28T10:28:37;7.60;99.90
3940;DHT22;1984;48.312;9.244;2024-02-28T10:31:04;7.70;99.90
3940;DHT22;1984;48.312;9.244;2024-02-28T10:33:30;7.70;99.90
3940;DHT22;1984;48.312;9.244;2024-02-28T10:35:59;7.80;99.90
3940;DHT22;1984;48.312;9.244;2024-02-28T10:38:26;8.00;99.90
3940;DHT22;1984;48.312;9.244;2024-02-28T10:40:53;8.10;99.90
3940;DHT22;1984;48.312;9.244;2024-02-28T10:43:19;8.20;99.90
3940;DHT22;1984;48.312;9.244;2024-02-28T10:45:45;8.50;99.90
3940;DHT22;1984;48.312;9.244;2024-02-28T10:48:14;9.20;99.90
3940;DHT22;1984;48.312;9.244;2024-02-28T10:50:41;9.70;99.90
3940;DHT22;1984;48.312;9.244;2024-02-28T10:53:13;9.90;99.90
3940;DHT22;1984;48.312;9.244;2024-02-28T10:55:42;10.10;99.90
3940;DHT22;1984;48.312;9.244;2024-02-28T10:58:10;11.30;99.90
3940;DHT22;1984;48.312;9.244;2024-02-28T11:00:37;13.30;99.90
3940;DHT22;1984;48.312;9.244;2024-02-28T11:03:04;14.60;99.90
3940;DHT22;1984;48.312;9.244;2024-02-28T11:05:37;15.40;99.90
3940;DHT22;1984;48.312;9.244;2024-02-28T11:08:07;14.80;99.90
3940;DHT22;1984;48.312;9.244;2024-02-28T11:10:33;14.00;99.90
3940;DHT22;1984;48.312;9.244;2024-02-28T11:12:59;13.30;99.90
3940;DHT22;1984;48.312;9.244;2024-02-28T11:15:25;12.80;99.90
3940;DHT22;1984;48.312;9.244;2024-02-28T11:17:52;12.30;99.90
3940;DHT22;1984;48.312;9.244;2024-02-28T11:20:18;12.00;99.90
3940;DHT22;1984;48.312;9.244;2024-02-28T11:22:44;12.20;99.90
3940;DHT22;1984;48.312;9.244;2024-02-28T11:25:09;12.40;99.90
3940;DHT22;1984;48.312;9.244;2024-02-28T11:27:48;12.20;99.90
3940;DHT22;1984;48.312;9.244;2024-02-28T11:30:14;12.10;99.90
3940;DHT22;1984;48.312;9.244;2024-02-28T11:32:41;11.80;99.90
3940;DHT22;1984;48.312;9.244;2024-02-28T11:35:06;11.50;99.90
3940;DHT22;1984;48.312;9.244;2024-02-28T11:37:32;11.40;99.90
3940;DHT22;1984;48.312;9.244;2024-02-28T11:39:59;11.30;99.90
3940;DHT22;1984;48.312;9.244;2024-02-28T11:42:24;11.20;99.90
3940;DHT22;1984;48.312;9.244;2024-02-28T11:44:55;11.10;99.90
3940;DHT22;1984;48.312;9.244;2024-02-28T11:47:22;11.20;99.90
3940;DHT22;1984;48.312;9.244;2024-02-28T11:49:48;11.00;99.90
3940;DHT22;1984;48.312;9.244;2024-02-28T11:52:14;11.20;99.90
3940;DHT22;1984;48.312;9.244;2024-02-28T11:54:39;11.30;99.90
3940;DHT22;1984;48.312;9.244;2024-02-28T11:57:07;11.40;99.90
3940;DHT22;1984;48.312;9.244;2024-02-28T11:59:32;11.70;99.90
3940;DHT22;1984;48.312;9.244;2024-02-28T12:01:58;11.60;99.90
3940;DHT22;1984;48.312;9.244;2024-02-28T12:04:24;11.60;99.90
3940;DHT22;1984;48.312;9.244;2024-02-28T12:06:50;11.70;99.90
3940;DHT22;1984;48.312;9.244;2024-02-28T12:09:17;11.80;99.90
3940;DHT22;1984;48.312;9.244;2024-02-28T12:11:43;11.80;99.90
3940;DHT22;1984;48.312;9.244;2024-02-28T12:14:09;11.70;99.90
3940;DHT22;1984;48.312;9.244;2024-02-28T12:16:39;11.80;99.90
3940;DHT22;1984;48.312;9.244;2024-02-28T12:19:08;11.70;99.90
3940;DHT22;1984;48.312;9.244;2024-02-28T12:21:36;11.70;99.90
3940;DHT22;1984;48.312;9.244;2024-02-28T12:24:01;11.80;99.90
3940;DHT22;1984;48.312;9.244;2024-02-28T12:26:27;11.90;99.90
3940;DHT22;1984;48.312;9.244;2024-02-28T12:28:53;12.00;99.90
3940;DHT22;1984;48.312;9.244;2024-02-28T12:31:18;11.90;99.90
3940;DHT22;1984;48.312;9.244;2024-02-28T12:33:44;11.70;99.90
3940;DHT22;1984;48.312;9.244;2024-02-28T12:36:09;11.50;99.90
3940;DHT22;1984;48.312;9.244;2024-02-28T12:38:35;11.40;99.90
3940;DHT22;1984;48.312;9.244;2024-02-28T12:41:01;11.40;99.90
3940;DHT22;1984;48.312;9.244;2024-02-28T12:43:29;11.40;99.90
3940;DHT22;1984;48.312;9.244;2024-02-28T12:45:54;11.50;99.90
3940;DHT22;1984;48.312;9.244;2024-02-28T12:48:20;11.30;99.90
3940;DHT22;1984;48.312;9.244;2024-02-28T12:50:45;11.10;99.90
3940;DHT22;1984;48.312;9.244;2024-02-28T12:53:11;11.00;99.90
3940;DHT22;1984;48.312;9.244;2024-02-28T12:55:36;10.80;99.90
3940;DHT22;1984;48.312;9.244;2024-02-28T12:58:02;10.70;99.90
3940;DHT22;1984;48.312;9.244;2024-02-28T13:00:30;10.70;99.90
3940;DHT22;1984;48.312;9.244;2024-02-28T13:02:56;10.50;99.90
3940;DHT22;1984;48.312;9.244;2024-02-28T13:05:21;10.50;99.90
3940;DHT22;1984;48.312;9.244;2024-02-28T13:07:47;10.40;99.90
3940;DHT22;1984;48.312;9.244;2024-02-28T13:10:13;10.40;99.90
3940;DHT22;1984;48.312;9.244;2024-02-28T13:12:38;10.20;99.90
3940;DHT22;1984;48.312;9.244;2024-02-28T13:15:05;10.10;99.90
3940;DHT22;1984;48.312;9.244;2024-02-28T13:17:31;10.10;99.90
3940;DHT22;1984;48.312;9.244;2024-02-28T13:19:56;10.00;99.90
3940;DHT22;1984;48.312;9.244;2024-02-28T13:22:22;10.00;99.90
3940;DHT22;1984;48.312;9.244;2024-02-28T13:24:47;9.90;99.90
3940;DHT22;1984;48.312;9.244;2024-02-28T13:27:13;9.90;99.90
3940;DHT22;1984;48.312;9.244;2024-02-28T13:29:39;9.90;99.90
3940;DHT22;1984;48.312;9.244;2024-02-28T13:32:04;9.70;99.90
3940;DHT22;1984;48.312;9.244;2024-02-28T13:34:30;9.50;99.90
3940;DHT22;1984;48.312;9.244;2024-02-28T13:36:56;9.50;99.90
3940;DHT22;1984;48.312;9.244;2024-02-28T13:39:22;9.50;99.90
3940;DHT22;1984;48.312;9.244;2024-02-28T13:41:49;9.30;99.90
3940;DHT22;1984;48.312;9.244;2024-02-28T13:44:17;9.20;99.90
3940;DHT22;1984;48.312;9.244;2024-02-28T13:46:43;9.20;99.90
3940;DHT22;1984;48.312;9.244;2024-02-28T13:49:09;9.20;99.90
3940;DHT22;1984;48.312;9.244;2024-02-28T13:51:34;9.20;99.90
3940;DHT22;1984;48.312;9.244;2024-02-28T13:54:00;9.10;99.90
3940;DHT22;1984;48.312;9.244;2024-02-28T13:56:25;9.10;99.90
3940;DHT22;1984;48.312;9.244;2024-02-28T13:58:51;9.00;99.90
3940;DHT22;1984;48.312;9.244;2024-02-28T14:01:17;8.80;99.90
3940;DHT22;1984;48.312;9.244;2024-02-28T14:03:44;8.70;99.90
3940;DHT22;1984;48.312;9.244;2024-02-28T14:06:10;8.60;99.90
3940;DHT22;1984;48.312;9.244;2024-02-28T14:08:35;8.60;99.90
3940;DHT22;1984;48.312;9.244;2024-02-28T14:11:01;8.70;99.90
3940;DHT22;1984;48.312;9.244;2024-02-28T14:13:27;8.70;99.90
3940;DHT22;1984;48.312;9.244;2024-02-28T14:15:53;8.70;99.90
3940;DHT22;1984;48.312;9.244;2024-02-28T14:18:19;8.50;99.90
3940;DHT22;1984;48.312;9.244;2024-02-28T14:20:45;8.50;99.90
3940;DHT22;1984;48.312;9.244;2024-02-28T14:23:10;8.50;99.90
3940;DHT22;1984;48.312;9.244;2024-02-28T14:25:36;8.50;99.90
3940;DHT22;1984;48.312;9.244;2024-02-28T14:28:01;8.50;99.90
3940;DHT22;1984;48.312;9.244;2024-02-28T14:30:27;8.50;99.90
3940;DHT22;1984;48.312;9.244;2024-02-28T14:32:53;8.60;99.90
3940;DHT22;1984;48.312;9.244;2024-02-28T14:35:19;8.60;99.90
3940;DHT22;1984;48.312;9.244;2024-02-28T14:37:45;8.50;99.90
3940;DHT22;1984;48.312;9.244;2024-02-28T14:40:11;8.40;99.90
3940;DHT22;1984;48.312;9.244;2024-02-28T14:42:38;8.40;99.90
3940;DHT22;1984;48.312;9.244;2024-02-28T14:45:07;8.40;99.90
3940;DHT22;1984;48.312;9.244;2024-02-28T14:47:33;8.20;99.90
3940;DHT22;1984;48.312;9.244;2024-02-28T14:50:01;8.20;99.90
3940;DHT22;1984;48.312;9.244;2024-02-28T14:52:26;8.20;99.90
3940;DHT22;1984;48.312;9.244;2024-02-28T14:54:53;8.20;99.90
3940;DHT22;1984;48.312;9.244;2024-02-28T14:57:18;8.20;99.90
3940;DHT22;1984;48.312;9.244;2024-02-28T14:59:44;8.30;99.90
3940;DHT22;1984;48.312;9.244;2024-02-28T15:02:11;8.30;99.90
3940;DHT22;1984;48.312;9.244;2024-02-28T15:04:37;8.30;99.90
3940;DHT22;1984;48.312;9.244;2024-02-28T15:07:03;8.20;99.90
3940;DHT22;1984;48.312;9.244;2024-02-28T15:09:29;8.10;99.90
3940;DHT22;1984;48.312;9.244;2024-02-28T15:11:54;7.90;99.90
3940;DHT22;1984;48.312;9.244;2024-02-28T15:14:22;7.90;99.90
3940;DHT22;1984;48.312;9.244;2024-02-28T15:16:48;7.90;99.90
3940;DHT22;1984;48.312;9.244;2024-02-28T15:19:14;7.80;99.90
3940;DHT22;1984;48.312;9.244;2024-02-28T15:21:39;7.80;99.90
3940;DHT22;1984;48.312;9.244;2024-02-28T15:24:05;7.90;99.90
3940;DHT22;1984;48.312;9.244;2024-02-28T15:26:31;7.90;99.90
3940;DHT22;1984;48.312;9.244;2024-02-28T15:28:56;7.90;99.90
3940;DHT22;1984;48.312;9.244;2024-02-28T15:31:22;7.90;99.90
3940;DHT22;1984;48.312;9.244;2024-02-28T15:33:48;7.90;99.90
3940;DHT22;1984;48.312;9.244;2024-02-28T15:36:14;7.90;99.90
3940;DHT22;1984;48.312;9.244;2024-02-28T15:38:40;7.90;99.90
3940;DHT22;1984;48.312;9.244;2024-02-28T15:41:05;7.90;99.90
3940;DHT22;1984;48.312;9.244;2024-02-28T15:43:31;8.00;99.90
3940;DHT22;1984;48.312;9.244;2024-02-28T15:45:57;7.90;99.90
3940;DHT22;1984;48.312;9.244;2024-02-28T15:48:22;7.80;99.90
3940;DHT22;1984;48.312;9.244;2024-02-28T15:50:48;7.80;99.90
3940;DHT22;1984;48.312;9.244;2024-02-28T15:53:14;7.70;99.90
3940;DHT22;1984;48.312;9.244;2024-02-28T15:55:40;7.60;99.90
3940;DHT22;1984;48.312;9.244;2024-02-28T15:58:05;7.70;99.90
3940;DHT22;1984;48.312;9.244;2024-02-28T16:00:31;7.60;99.90
3940;DHT22;1984;48.312;9.244;2024-02-28T16:02:56;7.60;99.90
3940;DHT22;1984;48.312;9.244;2024-02-28T16:05:22;7.50;99.90
3940;DHT22;1984;48.312;9.244;2024-02-28T16:07:53;7.40;99.90
3940;DHT22;1984;48.312;9.244;2024-02-28T16:10:20;7.40;99.90